< < Back
Terminal Aerodrome Forecast


Current Version              Previous Versions:   1  2  3  4  5  6  7  8  9  

Terminal Aerodrome Forecast

535
FTAK31 PAJN 032300
TAFAHN
TAF
PAHN 032321Z 0400/0424 VRB04KT P6SM OVC070
     FM040800 30006KT P6SM VCSH SCT020 OVC040
     FM041400 31008KT P6SM -RASN SCT015 BKN025 OVC035
      TEMPO 0414/0418 4SM -RASN BKN020 OVC025
     FM041800 31007KT P6SM -RA SCT015 OVC030
      AMD LTD TO CLD VIS AND WIND=



Latest METAR

707
SAUS70 KWBC 040700
MTRAHN
METAR KAHN 040651Z AUTO 00000KT 1/4SM FG VV002 08/07 A3008 RMK AO2
SLP190 T00780072


USA.gov is the U.S. government's official web portal to all federal, state and local government web resources and services.